x

9416841 - Arena Cove, Ca (anvc1) Weather Station

9:54am - Mon 24th Apr 2017 All times are PDT. -7 hours from GMT.

  • Wind
    3mph, 6mph gusts
  • Sea Temp 51°f
  • Air Temp 53°f
  • Sea Pressure 1018mb
  • 9416841 - Arena Cove, Ca
  • 9416841 - Arena Cove, Ca

More Historic Weather Station data

Upgrade to MSW Pro to gain access to the past 30 days of data for over 8000 Wavebouys and Weather Stations around the globe.

Join Pro

Comparision Forecast

View Surf forecast
   
Mon 04/24 9:54am 3 6 mph 1018mb 51f 53f
9:48am 5 6 mph 1018mb 51f 53f
9:42am 2 6 mph 1018mb 51f 53f
9:36am 3 6 mph 1017.9mb 51f 53f
9:30am 3 6 mph 1018mb 51f 53f
9:24am 2 3 mph 1017.9mb 51f 52f
9:18am 3 5 mph 1018mb 51f 52f
9:12am  -  5 mph 1017.9mb 51f 52f
9:06am 3 7 mph 1017.9mb 51f 52f
9:00am 3 8 mph 1017.9mb 51f 51f
8:54am 2 7 mph 1017.9mb 51f 51f
8:48am 3 6 mph 1017.8mb 51f 51f
8:42am 1 3 mph 1017.7mb 51f 51f
8:36am 2 5 mph 1017.7mb 51f 51f
8:30am 5 8 mph 1017.7mb 52f 51f
8:24am 3 5 mph 1017.7mb 52f 51f
8:18am  -  2 mph 1017.6mb 52f 51f
8:12am 1 2 mph 1017.6mb 52f 51f
8:06am 1 5 mph 1017.5mb 52f 51f
8:00am 1 3 mph 1017.5mb 52f 51f
7:54am 1 3 mph 1017.4mb 52f 51f
7:48am 5 7 mph 1017.3mb 52f 51f
7:42am  -  1 mph 1017.3mb 51f 51f
7:36am  -  1 mph 1017.2mb 52f 51f
7:30am  -  3 mph 1017.1mb 52f 51f
7:24am 2 3 mph 1017mb 51f 51f
7:18am 3 6 mph 1016.9mb 52f 51f
7:12am 3 6 mph 1016.9mb 52f 51f
7:06am 3 5 mph 1017mb 51f 51f
7:00am 3 5 mph 1016.9mb 51f 50f
6:54am 3 5 mph 1016.9mb 51f 50f
6:48am 3
mph
1016.9mb 51f 50f
6:42am 2 5 mph 1016.9mb 52f 50f
6:36am 3 5 mph 1016.8mb 52f 50f
6:30am 5 6 mph 1016.8mb 52f 50f
6:24am 2 6 mph 1016.7mb 52f 50f
6:18am 5 6 mph 1016.7mb 52f 50f
6:12am 2 3 mph 1016.7mb 52f 50f
6:06am 2 3 mph 1016.7mb 52f 50f
6:00am 2
mph
1016.7mb 52f 50f
5:54am 2 3 mph 1016.8mb 52f 50f
5:48am 3 5 mph 1016.7mb 52f 50f
5:42am 3
mph
1016.7mb 52f 50f
5:36am 2 3 mph 1016.7mb 52f 50f
5:30am 2 5 mph 1016.8mb 52f 50f
5:24am 3 5 mph 1016.8mb 52f 50f
5:18am 3 5 mph 1016.8mb 52f 50f
5:12am 3 5 mph 1016.9mb 52f 50f
5:06am 1 2 mph 1017mb 52f 50f
5:00am 2 3 mph 1017.1mb 52f 50f
4:54am 1 3 mph 1017.1mb 52f 50f
4:48am 1 2 mph 1017.1mb 52f 50f
4:42am 1 3 mph 1017.1mb 52f 50f
4:36am 2 3 mph 1017.1mb 52f 50f
4:30am 1 3 mph 1017.1mb 52f 50f
4:24am 1 2 mph 1017.2mb 52f 50f
4:18am 1 2 mph 1017.2mb 52f 50f
4:12am  -  2 mph 1017.2mb 52f 51f
4:06am  -  mph 1017.2mb 52f 51f
4:00am  -  1 mph 1017.2mb 52f 51f
3:54am  -  2 mph 1017.3mb 52f 51f
3:48am 2
mph
1017.3mb 52f 51f
3:42am  -  5 mph 1017.3mb 52f 51f
3:36am 2 3 mph 1017.3mb 52f 51f
3:30am 1 5 mph 1017.3mb 52f 51f
3:24am 2 3 mph 1017.3mb 52f 51f
3:18am 2
mph
1017.4mb 52f 51f
3:12am 2
mph
1017.3mb 52f 51f
3:06am  -  2 mph 1017.3mb 52f 51f
3:00am 2
mph
1017.3mb 52f 51f
2:54am  -  1 mph 1017.4mb 52f 51f
2:48am 2
mph
1017.5mb 52f 51f
2:42am 1 2 mph 1017.4mb 52f 51f
2:36am  -  3 mph 1017.5mb 52f 51f
2:30am 1 3 mph 1017.6mb 52f 51f
2:24am 2 3 mph 1017.6mb 52f 51f
2:18am 2 3 mph 1017.6mb 52f 51f
2:12am 1 2 mph 1017.7mb 52f 51f
2:06am  -  1 mph 1017.9mb 52f 52f
2:00am  -  1 mph 1017.9mb 52f 52f
1:54am 1 2 mph 1017.8mb 52f 52f
1:48am 2 5 mph 1018mb 52f 52f
1:42am 1 2 mph 1018mb 52f 52f
1:36am 1 2 mph 1018.1mb 52f 52f
1:30am  -  1 mph 1018mb 52f 52f
1:24am  -  2 mph 1018mb 52f 52f
1:18am 2
mph
1018.1mb 52f 52f
1:12am  -  2 mph 1018mb 52f 52f
1:06am 1 2 mph 1018mb 52f 52f
1:00am 1 2 mph 1018.1mb 52f 53f
12:54am 1 2 mph 1018.2mb 52f 53f
12:48am  -  1 mph 1018.2mb 52f 52f
12:42am  -  1 mph 1018.2mb 52f 53f
12:36am 1 2 mph 1018.2mb 52f 53f
12:30am 1 2 mph 1018.2mb 52f 53f
12:24am  -  1 mph 1018.1mb 52f 53f
12:18am  -  2 mph 1018.2mb 52f 53f
12:12am 2 3 mph 1018.3mb 52f 53f
12:06am  -  1 mph 1018.3mb 52f 53f
12:00am  -  2 mph 1018.2mb 52f 53f
Sun 04/23 11:54pm  -  2 mph 1018.4mb 52f 53f
11:48pm 1 2 mph 1018.5mb 52f 53f
11:42pm  -  2 mph 1018.5mb 52f 53f
11:36pm  -  2 mph 1018.3mb 52f 53f
11:30pm  -  3 mph 1018.5mb 52f 53f
11:24pm 1 3 mph 1018.4mb 52f 53f
11:18pm 1 3 mph 1018.3mb 52f 53f
11:12pm 2 3 mph 1018.1mb 53f 53f
11:06pm  -  3 mph 1018.4mb 53f 53f
11:00pm 3 6 mph 1018.4mb 53f 53f
10:54pm 5 6 mph 1018.5mb 53f 53f
10:48pm 2 5 mph 1018.5mb 53f -
10:42pm 3 7 mph 1018.6mb 53f -
10:36pm 5 8 mph 1018.7mb 53f -
10:30pm 6 8 mph 1018.9mb 53f 53f
10:24pm 5 8 mph 1019.1mb 53f 53f
10:18pm 5 6 mph 1019mb 53f 53f
10:12pm 3 6 mph 1018.9mb 53f 53f
10:06pm 2 7 mph 1019mb 53f 53f
10:00pm 2 8 mph 1019mb 53f 53f
9:54pm 5 6 mph 1019mb 53f 53f
9:48pm 5 7 mph 1018.9mb 53f 53f
9:42pm 5 6 mph 1019mb 53f 53f
9:36pm 5 8 mph 1018.9mb 53f 53f
9:30pm 5 8 mph 1018.8mb 53f 53f
9:24pm 5 7 mph 1018.7mb 53f 53f
9:18pm 3 6 mph 1018.7mb 53f 53f
9:12pm 3 6 mph 1018.6mb 53f 53f
9:06pm 5 6 mph 1018.7mb 53f 53f
9:00pm 3 5 mph 1018.5mb 53f 53f
8:54pm 3 6 mph 1018.4mb 53f 53f
8:48pm 3 5 mph 1018.3mb 53f 53f
8:42pm 2 3 mph 1018.1mb 53f 53f
8:36pm 2 3 mph 1018mb 53f 53f
8:30pm 1 3 mph 1018mb 53f 53f
8:24pm 3 6 mph 1018.4mb 53f 53f
8:18pm 5 7 mph 1018.4mb 53f 53f
8:12pm 6 8 mph 1018.4mb 53f 53f
8:06pm 5 7 mph 1018.3mb 53f 53f
8:00pm 5 8 mph 1018.3mb 53f 53f
7:54pm 5 8 mph 1018.3mb 53f 53f
7:48pm 3 7 mph 1018.3mb 53f 53f
7:42pm 6 9 mph 1018.3mb 53f 53f
7:36pm 5 9 mph 1018.3mb 53f 53f
7:30pm 6 10 mph 1018.3mb 53f 53f
7:24pm 5 7 mph 1018.3mb 53f 53f
7:18pm 5 9 mph 1018.1mb 53f 54f
7:12pm 7 11 mph 1018.2mb 53f 54f
7:06pm 7 10 mph 1018.4mb 53f 54f
7:00pm 6 10 mph 1018.4mb 53f 54f
6:54pm 7 11 mph 1018.6mb 53f 54f
6:48pm 7 13 mph 1018.5mb 53f 54f
6:42pm 6 13 mph 1018.3mb 53f 54f
6:36pm 6 13 mph 1018.5mb 53f 54f
6:30pm 6 10 mph 1018.8mb 53f 55f
6:24pm 5 10 mph 1018.7mb 53f 55f
6:18pm 9 11 mph 1018.9mb 53f 55f
6:12pm 8 14 mph 1018.9mb 53f 55f
6:06pm 8 16 mph 1018.9mb 53f 55f
6:00pm 7 10 mph 1018.9mb 53f 55f
5:48pm 10 16 mph 1018.8mb 53f 55f
5:42pm 13 16 mph 1018.7mb 53f 56f
5:36pm 9 14 mph 1018.5mb 54f 56f
5:30pm 10 16 mph 1018.5mb 53f 56f
5:24pm 10 15 mph 1018.6mb 53f 56f
5:18pm 10 16 mph 1018.6mb 53f 56f
5:12pm 9 18 mph 1018.4mb 54f 56f
5:06pm 11 20 mph 1018.6mb 54f 55f
5:00pm 13 18 mph 1018.7mb 54f 55f
4:48pm 13 21 mph 1018.9mb 54f 56f
4:42pm 10 16 mph 1018.9mb 54f 56f
4:36pm 9 16 mph 1018.8mb 54f 56f
4:30pm 11 20 mph 1018.8mb 54f 56f
4:24pm 9 17 mph 1018.9mb 54f 56f
4:18pm 13 18 mph 1018.8mb 54f 56f
4:12pm 10 18 mph 1018.8mb 53f 56f
4:06pm 13 18 mph 1018.9mb 53f 56f
4:00pm 11 20 mph 1018.9mb 53f 56f
3:54pm 11 15 mph 1019mb 53f 56f
3:48pm 11 17 mph 1019mb 54f 56f
3:42pm 10 20 mph 1018.9mb 54f 56f
3:36pm 11 20 mph 1018.9mb 53f 56f
3:30pm 11 17 mph 1019mb 53f 56f
3:24pm 11 18 mph 1019.1mb 54f 56f
3:18pm 14 17 mph 1019mb 54f 56f
3:12pm 14 20 mph 1019.1mb 53f 56f
3:06pm 14 18 mph 1019.2mb 53f 56f
3:00pm 11 17 mph 1019.3mb 53f 56f
2:54pm 14 20 mph 1019.2mb 53f 56f
2:48pm 13 20 mph 1019.2mb 53f 56f
2:42pm 14 18 mph 1019.2mb 53f 56f
2:36pm 14 20 mph 1019.1mb 53f 56f
2:30pm 14 20 mph 1019mb 53f 55f
2:24pm 14 17 mph 1019mb 53f 55f
2:18pm 14 18 mph 1018.9mb 53f 55f
2:12pm 11 18 mph 1018.9mb 53f 56f
2:06pm 14 20 mph 1018.9mb 53f 55f
2:00pm 13 20 mph 1018.9mb 53f 56f
1:54pm 14 20 mph 1019mb 53f 56f
1:48pm 13 18 mph 1019mb 53f 56f
1:42pm 11 18 mph 1019.1mb 53f 56f
1:36pm 13 18 mph 1019mb 53f 56f
1:30pm 13 18 mph 1018.9mb 53f 56f
1:24pm 13 17 mph 1018.9mb 53f 56f
1:18pm 13 18 mph 1018.8mb 53f 56f
1:12pm 11 17 mph 1018.9mb 53f 56f
1:06pm 11 17 mph 1019mb 53f 56f
1:00pm 13 20 mph 1019mb 53f 56f
12:54pm 14 20 mph 1019mb 53f 55f
12:48pm 14 20 mph 1019.1mb 53f 55f
12:42pm 13 20 mph 1019.2mb 53f 55f
12:36pm 13 18 mph 1019.1mb 54f 55f
12:30pm 11 17 mph 1019.1mb 55f 55f
12:24pm 11 16 mph 1019.1mb 53f 55f
12:18pm 14 18 mph 1019.1mb 53f 55f
12:12pm 13 20 mph 1019mb 55f 55f
12:06pm 15 21 mph 1018.9mb 53f 54f
12:00pm 14 18 mph 1018.9mb 54f 55f
11:54am 15 20 mph 1018.7mb 53f 55f
11:48am 7 13 mph 1018.7mb 53f 56f
11:42am 9 15 mph 1018.6mb 53f 55f
11:36am 7 14 mph 1018.6mb 53f 55f
11:30am 10 15 mph 1018.6mb 53f 55f
11:24am 9 14 mph 1018.5mb 53f 55f
11:18am 9 15 mph 1018.5mb 53f 55f
11:12am 7 14 mph 1018.6mb 53f 55f
11:06am 11 16 mph 1018.7mb 53f 55f
11:00am 11 16 mph 1018.7mb 53f 54f
10:54am 9 16 mph 1018.7mb 53f 54f
10:48am 13 20 mph 1018.6mb 53f 54f
10:42am 13 17 mph 1018.6mb 53f 54f
10:36am 14 16 mph 1018.4mb 53f 54f
10:30am 11 14 mph 1018.3mb 52f 55f
10:24am 8 13 mph 1018.3mb 53f 55f
10:18am 8 13 mph 1018.2mb 53f 55f
10:12am 7 13 mph 1018.2mb 52f 55f
10:06am 7 11 mph 1018.2mb 53f 55f
10:00am 9 13 mph 1018.2mb 52f 54f
9:54am 8 11 mph 1018mb 53f 55f
9:48am 7 13 mph 1018.1mb 53f 55f
9:42am 7 11 mph 1018mb 54f 55f
9:36am 7 11 mph 1018mb 52f 54f
9:30am 5 13 mph 1018mb 52f 54f
9:24am 7 14 mph 1018mb 52f 54f
9:18am 8 13 mph 1018mb 52f 54f
9:12am 7 13 mph 1017.9mb 52f 54f
9:06am 6 11 mph 1017.9mb 52f 54f
9:00am 5 8 mph 1017.8mb 52f 54f
8:54am 5 8 mph 1017.8mb 52f 54f
8:48am 3 9 mph 1017.8mb 52f 53f
8:42am 5 9 mph 1017.8mb 52f 53f
8:36am 3 6 mph 1017.8mb 52f 53f
8:30am 1 6 mph 1017.8mb 52f 53f
8:24am 2 6 mph 1017.7mb 52f 53f
8:18am 2 8 mph 1017.6mb 52f 53f
8:12am 3 6 mph 1017.6mb 52f 53f
8:06am  -  3 mph 1017.6mb 52f 53f
8:00am 1 3 mph 1017.6mb 52f 53f
7:54am 1 3 mph 1017.7mb 52f 52f
7:48am 1 3 mph 1017.6mb 52f 52f
7:42am 1 2 mph 1017.6mb 52f 52f
7:36am  -  2 mph 1017.5mb 52f 51f
7:30am 1 2 mph 1017.4mb 52f 51f
7:24am  -  2 mph 1017.4mb 52f 51f
7:18am 1 5 mph 1017.4mb 52f 50f
7:12am 3 5 mph 1017.3mb 52f 50f
7:06am 2 3 mph 1017.2mb 52f 50f
7:00am 2 5 mph 1017.2mb 52f 50f
6:54am 3 5 mph 1017.1mb 53f 50f
6:48am 2 3 mph 1017.2mb 53f 49f
6:42am 2 5 mph 1017.2mb 53f 49f
6:36am 3 6 mph 1017mb 53f 49f
6:30am 3 6 mph 1017.1mb 53f 49f
6:24am 3 5 mph 1017mb 53f 49f
6:18am 3 6 mph 1017mb 53f 49f
6:12am 3 5 mph 1017.1mb 53f 49f
6:06am 2 6 mph 1017.1mb 53f 49f
6:00am 3 5 mph 1017.1mb 53f 49f
5:54am 3 5 mph 1017.1mb 53f 49f
5:48am 3 5 mph 1017.1mb 53f 49f
5:42am 3 6 mph 1017.1mb 53f 49f
5:36am 5 7 mph 1017.1mb 53f 49f
5:30am 5 6 mph 1017.2mb 53f 49f
5:24am 5 6 mph 1017.2mb 53f 49f
5:18am 3 6 mph 1017.3mb 53f 49f
5:12am 3 7 mph 1017.4mb 53f 49f
5:06am 3 5 mph 1017.4mb 53f 49f
5:00am 5 6 mph 1017.5mb 53f 49f
4:54am 3 5 mph 1017.5mb 53f 49f
4:48am 3 5 mph 1017.6mb 53f 49f
4:42am 3 5 mph 1017.6mb 53f 50f
4:36am 3 5 mph 1017.5mb 53f 49f
4:30am 2 6 mph 1017.5mb 53f 49f
4:24am 3 5 mph 1017.6mb 53f 50f
4:18am 3 6 mph 1017.5mb 53f 50f
4:12am 2 7 mph 1017.5mb 53f 50f
4:06am 2 5 mph 1017.6mb 53f 50f
4:00am 1 5 mph 1017.6mb 53f 50f
3:54am 3 6 mph 1017.7mb 53f 50f
3:48am 2 5 mph 1017.8mb 53f 50f
3:42am 2 6 mph 1017.7mb 53f 50f
3:36am 3 6 mph 1017.7mb 53f 50f
3:30am 2 5 mph 1017.7mb 53f 50f
3:24am 1 3 mph 1017.7mb 53f 51f
3:18am 2 3 mph 1017.6mb 53f 51f
3:12am 2 3 mph 1017.5mb 53f 51f
3:06am 3 6 mph 1017.5mb 53f 51f
3:00am 2 3 mph 1017.5mb 53f 51f
2:54am 1 3 mph 1017.6mb 53f 51f
2:48am 2 6 mph 1017.6mb 53f 51f
2:42am 3 6 mph 1017.6mb 53f 51f
2:36am 2 5 mph 1017.6mb 53f 51f
2:30am 1 3 mph 1017.6mb 53f 51f
2:24am 1 2 mph 1017.6mb 53f 52f
2:18am 1 2 mph 1017.6mb 53f 52f
2:12am 2
mph
1017.6mb 53f 52f
2:06am  -  1 mph 1017.6mb 53f 52f
2:00am  -  3 mph 1017.6mb 53f 52f
1:54am 2 3 mph 1017.6mb 53f 52f
1:48am  -  5 mph 1017.6mb 53f 52f
1:42am 2 5 mph 1017.6mb 53f 52f
1:36am  -  3 mph 1017.6mb 53f 52f
1:30am 1 2 mph 1017.6mb 53f 53f
1:24am 1 3 mph 1017.7mb 53f 53f
1:18am  -  2 mph 1017.7mb 53f 53f
1:12am 1 2 mph 1017.7mb 53f 53f
1:06am  -  3 mph 1017.7mb 53f 53f
1:00am 1 3 mph 1017.7mb 53f 53f
12:54am  -  2 mph 1017.8mb 53f 53f
12:48am  -  2 mph 1017.9mb 53f 53f
12:42am  -  6 mph 1017.9mb 53f 53f
12:36am 1 2 mph 1018mb 53f 53f
12:30am 1 3 mph 1018mb 53f 53f
12:24am 1 3 mph 1018mb 53f 53f
12:18am 1 2 mph 1018mb 53f 53f
12:12am  -  2 mph 1018mb 53f 53f
12:06am 1 3 mph 1018mb 53f 53f
12:00am  -  2 mph 1018mb 53f 52f
Sat 04/22 11:54pm  -  2 mph 1018mb 53f 52f
11:48pm  -  1 mph 1018mb 53f 52f
11:42pm 1 3 mph 1018mb 53f 52f
11:36pm 1 5 mph 1018mb 53f 52f
11:30pm 2 6 mph 1018mb 53f 52f
11:24pm 2 5 mph 1018.1mb 53f 52f
11:18pm 2 5 mph 1018.1mb 53f 52f
11:12pm 2 3 mph 1018.1mb 53f 52f
11:06pm 2 6 mph 1018.2mb 53f 52f
11:00pm 2 5 mph 1018.2mb 53f 53f
10:54pm  -  6 mph 1018.2mb 53f 53f
10:48pm 2 3 mph 1018.2mb 53f 53f
10:42pm  -  1 mph 1018.4mb 53f 53f
10:36pm  -  2 mph 1018.4mb 53f 53f
10:30pm  -  2 mph 1018.5mb 53f 54f
10:24pm  -  3 mph 1018.7mb 53f 54f
10:18pm 1 5 mph 1018.7mb 53f 54f
10:12pm 1 2 mph 1018.7mb 53f 54f
10:06pm 1 5 mph 1018.7mb 53f 54f
10:00pm  -  5 mph 1018.7mb 53f 54f
9:54pm 1 3 mph 1018.7mb 53f 54f
9:48pm  -  3 mph 1018.6mb 53f 54f
9:42pm 2 3 mph 1018.7mb 53f 54f
9:36pm 1 3 mph 1018.6mb 53f 54f
9:30pm 2 6 mph 1018.6mb 53f 54f
9:24pm 2 3 mph 1018.6mb 53f 54f
9:18pm 2 5 mph 1018.5mb 53f 54f
9:12pm 2 5 mph 1018.4mb 53f 54f
9:06pm 2 5 mph 1018.4mb 53f 54f
9:00pm 2 5 mph 1018.2mb 53f 54f
8:54pm 2 3 mph 1018.2mb 53f 54f
8:48pm 1 5 mph 1018.2mb 53f 54f
8:42pm 2 5 mph 1018mb 53f 54f
8:36pm 1 3 mph 1018.1mb 53f 54f
8:30pm 2 3 mph 1018.1mb 53f 54f
8:24pm 1 3 mph 1018.1mb 53f 54f
8:18pm 2 5 mph 1018mb 53f 54f
8:12pm 3 5 mph 1018.1mb 53f 55f
8:06pm 2 6 mph 1018mb 53f 55f
8:00pm 3 6 mph 1018mb 53f 55f
7:54pm 3 6 mph 1018mb 53f 55f
7:48pm 3 8 mph 1018mb 53f 55f
7:42pm 5 8 mph 1017.9mb 53f 55f
7:36pm 6 7 mph 1018mb 54f 55f
7:30pm 5 9 mph 1018mb 54f 56f
7:24pm 6 8 mph 1018mb 54f 55f
7:18pm 6 10 mph 1017.8mb 54f 55f
7:12pm 8 11 mph 1017.9mb 54f 56f
7:06pm 7 9 mph 1017.9mb 54f 56f
7:00pm 7 9 mph 1017.8mb 54f 56f
6:54pm 6 11 mph 1017.8mb 54f 56f
6:48pm 6 11 mph 1017.8mb 54f 56f
6:42pm 7 13 mph 1017.7mb 54f 57f
6:36pm 3 10 mph 1017.8mb 54f 57f
6:30pm 7 11 mph 1017.7mb 54f 57f
6:24pm 6 9 mph 1017.8mb 54f 57f
6:18pm 5 8 mph 1017.7mb 54f 57f
6:12pm 5 9 mph 1017.7mb 54f 57f
6:06pm 5 11 mph 1017.9mb 54f 57f
6:00pm 6 16 mph 1018mb 54f 57f
5:48pm 9 15 mph 1018.1mb 54f 57f
5:42pm 10 15 mph 1018.2mb 54f 57f
5:36pm 11 17 mph 1018.2mb 54f 57f
5:30pm 10 13 mph 1018.1mb 54f 57f
5:24pm 7 11 mph 1018.1mb 54f 57f
5:18pm 8 14 mph 1018mb 54f 58f
5:12pm 10 16 mph 1017.9mb 54f 57f
5:06pm 8 14 mph 1018mb 54f 57f
5:00pm 8 11 mph 1018.1mb 54f 57f
4:48pm 8 11 mph 1018.1mb 54f 57f
4:42pm 8 14 mph 1018.2mb 54f 56f
4:36pm 7 9 mph 1018.3mb 55f 56f
4:30pm 6 11 mph 1018.3mb 54f 56f
4:24pm 8 14 mph 1018.4mb 54f 56f
4:00pm 8 14 mph 1018.2mb 54f 56f
3:48pm 9 14 mph 1018.4mb 54f 56f
3:42pm 10 16 mph 1018.4mb 54f 56f
3:36pm 11 14 mph 1018.5mb 55f 56f
3:30pm 8 11 mph 1018.4mb 54f 57f
3:24pm 9 11 mph 1018.3mb 54f 56f
3:18pm 7 13 mph 1018.2mb 54f 56f
3:12pm 8 11 mph 1018.3mb 54f 56f
3:06pm 7 14 mph 1018.2mb 54f 56f
3:00pm 10 14 mph 1018.3mb 55f 56f
2:54pm 11 14 mph 1018.3mb 54f 57f
2:48pm 9 13 mph 1018.2mb 54f 58f
2:42pm 9 14 mph 1018.1mb 54f 58f
2:36pm 7 14 mph 1018.2mb 54f 58f
2:30pm 8 10 mph 1018.2mb 54f 58f
2:24pm 3 9 mph 1018mb 54f 57f
2:18pm 7 13 mph 1018.3mb 54f 57f
2:12pm 9 11 mph 1018.4mb 54f 57f
2:06pm 9 13 mph 1018.5mb 54f 56f
2:00pm 9 13 mph 1018.7mb 55f 56f
1:54pm 9 13 mph 1018.8mb 55f 56f
1:48pm 9 13 mph 1018.8mb 54f 56f
1:42pm 8 11 mph 1018.7mb 54f 56f
1:36pm 8 10 mph 1018.8mb 54f 55f
1:30pm 6 8 mph 1018.9mb 54f 55f
1:24pm 7 8 mph 1019.1mb 54f 55f
1:18pm 7 8 mph 1019mb 54f 55f
1:12pm 6 7 mph 1019mb 54f 55f
1:06pm 6
mph
1019mb 54f 55f
1:00pm 5
mph
1019mb 54f 55f
12:54pm 2 3 mph 1019mb 54f 55f
12:48pm 2 3 mph 1019.1mb 54f 55f
12:42pm 3
mph
1019.2mb 54f 55f
12:36pm 2 3 mph 1019.2mb 54f 55f
12:30pm 3
mph
1019.1mb 54f 55f
12:24pm 3
mph
1019.2mb 53f 55f
12:18pm 3 5 mph 1019.3mb 53f 55f
12:12pm 5
mph
1019.2mb 53f 55f
12:06pm 5
mph
1019.3mb 53f 55f
12:00pm 3 5 mph 1019.4mb 53f 55f
11:54am 3
mph
1019.5mb 54f 55f
11:48am 3
mph
1019.5mb 55f 55f
11:42am 2 3 mph 1019.4mb 54f 55f
11:36am 1 2 mph 1019.4mb 53f 55f
11:30am 1 2 mph 1019.2mb 53f 55f
11:24am 1 2 mph 1019.1mb 53f 55f
11:18am 1 2 mph 1019.2mb 53f 55f
11:12am 1
mph
1019.1mb 53f 55f
11:06am  -  1 mph 1019mb 53f 55f
11:00am 1
mph
1019mb 53f 54f
10:54am 1
mph
1018.9mb 53f 54f
10:48am 1 2 mph 1018.7mb 53f 55f
10:42am 2 3 mph 1018.7mb 53f 54f
10:36am 2 3 mph 1018.6mb 54f 54f
10:30am 2
mph
1018.5mb 53f 54f
10:24am 2 5 mph 1018.3mb 53f 54f
10:18am 3 5 mph 1018.4mb 53f 54f
10:12am 2 3 mph 1018.2mb 53f 54f
10:06am 2 3 mph 1018.1mb 53f 54f
10:00am 2 5 mph 1018.1mb 54f 54f
9:54am 3 5 mph 1018mb 53f 54f
9:48am 2 3 mph 1018mb 53f 53f
9:42am 1 3 mph 1017.9mb 53f 54f
9:36am 1 2 mph 1017.9mb 53f 53f
9:30am 2 3 mph 1017.9mb 54f 53f
9:24am 1
mph
1017.9mb 53f 53f
9:18am  -  2 mph 1017.9mb 53f 53f
9:12am 1 2 mph 1017.9mb 53f 53f
9:06am  -  3 mph 1018mb 53f 53f
9:00am  -  2 mph 1018mb 53f 53f
8:54am  -  2 mph 1018mb 53f 52f
8:48am 1 2 mph 1018mb 53f 52f
8:42am 3 5 mph 1017.9mb 53f 52f
8:36am 1 3 mph 1017.9mb 53f 52f
8:30am 1 3 mph 1017.7mb 53f 52f
8:24am 1 2 mph 1017.6mb 53f 52f
8:18am  -  3 mph 1017.6mb 53f 52f
8:12am 2 3 mph 1017.6mb 53f 53f
8:06am 3 5 mph 1017.5mb 53f 52f
8:00am 3 5 mph 1017.4mb 54f 52f
7:54am 3 6 mph 1017.4mb 54f 52f
7:48am 5 6 mph 1017.3mb 53f 51f
7:42am 5 6 mph 1017.3mb 53f 51f
7:36am 5 6 mph 1017.2mb 53f 51f
7:30am 6 7 mph 1017.3mb 53f 50f
7:24am 6 7 mph 1017.2mb 53f 50f
7:18am 6 7 mph 1017.2mb 53f 50f
7:12am 6
mph
1017.3mb 53f 50f
7:06am 6 7 mph 1017.3mb 53f 49f
7:00am 6 7 mph 1017.2mb 53f 49f
6:54am 6 7 mph 1017.2mb 53f 49f
6:48am 6
mph
1017.3mb 53f 49f
6:42am 6 7 mph 1017.3mb 53f 48f
6:36am 6 7 mph 1017.2mb 53f 48f
6:30am 6 7 mph 1017.1mb 53f 48f
6:24am 6 7 mph 1017.1mb 53f 48f
6:18am 6 7 mph 1017.1mb 53f 48f
6:12am 6 7 mph 1017.2mb 53f 48f
6:06am 6 7 mph 1017.2mb 53f 47f
6:00am 6 7 mph 1017.1mb 53f 47f
5:48am 6 9 mph 1017.1mb 53f 47f
5:42am 5 8 mph 1017.2mb 53f 47f
5:36am 6 7 mph 1017.3mb 53f 48f
5:30am 5 8 mph 1017.3mb 53f 48f
5:24am 6 9 mph 1017.3mb 53f 48f
5:18am 6 7 mph 1017.4mb 53f 48f
5:12am 6 7 mph 1017.3mb 53f 47f
5:06am 5 6 mph 1017.4mb 53f 47f
5:00am 5 6 mph 1017.5mb 53f 47f
4:54am 5 6 mph 1017.5mb 53f 47f
4:48am 3 8 mph 1017.6mb 53f 48f
4:42am 7 9 mph 1017.7mb 53f 48f
4:36am 7 8 mph 1017.6mb 53f 48f
4:30am 8 9 mph 1017.6mb 53f 49f
4:24am 5 7 mph 1017.6mb 53f 50f
4:18am 5 7 mph 1017.5mb 53f 51f
4:12am 6 8 mph 1017.3mb 53f 50f
4:06am 6 8 mph 1017.2mb 53f 50f
4:00am 8 9 mph 1017.2mb 53f 49f
3:54am 6 7 mph 1017.1mb 53f 49f
3:48am 6
mph
1017mb 53f 49f
3:42am 3
mph
1017mb 53f 51f
3:36am 3 7 mph 1017mb 53f 50f
3:30am 7
mph
1016.7mb 53f 49f
3:24am 6 8 mph 1016.7mb 53f 50f
3:18am 8
mph
1016.6mb 53f 49f
3:12am 8
mph
1016.7mb 53f 49f
3:06am 7 8 mph 1016.7mb 53f 49f
3:00am 7 8 mph 1016.8mb 53f 49f
2:54am 8 9 mph 1016.6mb 53f 48f
2:48am 8 9 mph 1016.6mb 53f 48f
2:42am 7 8 mph 1016.7mb 53f 49f
2:36am 7 9 mph 1016.8mb 53f 52f
2:30am 6 7 mph 1016.9mb 53f 51f
2:24am 6 8 mph 1016.7mb 53f 51f
2:18am 5 6 mph 1016.9mb 53f 50f
2:12am 5 6 mph 1016.9mb 53f 50f
2:06am 5 6 mph 1016.7mb 53f 49f
2:00am 5 7 mph 1016.8mb 53f 47f
1:54am 7 8 mph 1016.5mb 53f 46f
1:48am 7 8 mph 1016.5mb 53f 46f
1:42am 7 9 mph 1016.4mb 53f 46f
1:36am 8
mph
1016.5mb 53f 46f
1:30am 5 9 mph 1016.5mb 53f 48f
1:24am 6 9 mph 1016.3mb 53f 51f
1:18am 7 8 mph 1016.4mb 53f 50f
1:12am 2 6 mph 1016.6mb 53f 48f
1:06am 5 9 mph 1016.4mb 53f 47f
1:00am 9 10 mph 1016.1mb 53f 46f
12:54am 8 10 mph 1016.1mb 53f 45f
12:48am 8 9 mph 1016mb 53f 46f
12:42am 8 9 mph 1016mb 53f 45f
12:36am 6 7 mph 1016.1mb 53f 46f
12:30am 5 7 mph 1016.1mb 53f 47f
12:24am 7 9 mph 1016mb 53f 46f
12:18am 8 9 mph 1016mb 53f 47f
12:12am 8 10 mph 1016mb 53f 46f
12:06am 9 11 mph 1016.1mb 53f 46f
12:00am 9 10 mph 1016.2mb 53f 46f
Fri 04/21 11:54pm 9 11 mph 1016.3mb 53f 46f
11:48pm 9 11 mph 1016.4mb 53f 46f
11:42pm 10 11 mph 1016.5mb 53f 45f
11:36pm 9 10 mph 1016.7mb 53f 46f
11:30pm 7 8 mph 1016.8mb 53f 47f
11:24pm 6 7 mph 1017mb 53f 47f
11:18pm 6 7 mph 1016.9mb 53f 47f
11:12pm 6
mph
1017mb 53f 47f
11:06pm 5 6 mph 1017mb 53f 47f
11:00pm 6 7 mph 1017mb 53f 47f
10:54pm 7 8 mph 1016.9mb 53f 48f
10:48pm 5 7 mph 1017mb 53f 49f
10:42pm 6 7 mph 1017.1mb 53f 49f
10:36pm 5 6 mph 1017.1mb 53f 49f
10:30pm 5 6 mph 1017.1mb 53f 49f
10:24pm 3 5 mph 1017.2mb 53f 50f
10:18pm 2 8 mph 1017.2mb 53f 52f
10:12pm 8 9 mph 1017.1mb 53f 53f
10:06pm 8
mph
1017.1mb 53f 52f
10:00pm 7 8 mph 1017mb 53f 52f
9:54pm 6 8 mph 1017.1mb 53f 52f
9:48pm 3 7 mph 1017.1mb 53f 51f
9:42pm 3 5 mph 1017.1mb 53f 52f
9:36pm 3 5 mph 1017mb 53f 52f
9:30pm 2 5 mph 1017.1mb 54f 52f
9:24pm 3 5 mph 1017mb 54f 52f
9:18pm 2 3 mph 1017mb 54f 52f
9:12pm 2 5 mph 1016.9mb 54f 52f
9:06pm 3 6 mph 1016.9mb 54f 53f
9:00pm 3 6 mph 1016.7mb 54f 53f
8:54pm 3 5 mph 1016.8mb 54f 53f
8:48pm 3 5 mph 1016.8mb 54f 53f
8:42pm 3 5 mph 1016.8mb 54f 53f
8:36pm 2 5 mph 1016.9mb 54f 53f
8:30pm 2 5 mph 1016.9mb 54f 54f
8:24pm 2 6 mph 1017mb 54f 54f
8:18pm 2 5 mph 1016.9mb 54f 54f
8:12pm 2 3 mph 1017mb 54f 54f
8:06pm 1 3 mph 1017mb 54f 54f
8:00pm  -  3 mph 1017mb 54f 55f
7:54pm 1 3 mph 1017mb 54f 55f
7:48pm  -  5 mph 1017mb 54f 55f
7:42pm 3 7 mph 1017.1mb 54f 55f
7:36pm 3 7 mph 1017.1mb 54f 55f
7:30pm 6 8 mph 1017.1mb 54f 55f
7:24pm 5 8 mph 1017.2mb 54f 56f
7:18pm 5 7 mph 1017.2mb 54f 57f
7:12pm 5 8 mph 1017.2mb 54f 57f
7:06pm 5 7 mph 1017.3mb 54f 57f
7:00pm 5 7 mph 1017.3mb 54f 58f
6:54pm 5 7 mph 1017.4mb 54f 58f
6:48pm 5 9 mph 1017.6mb 54f 58f
6:42pm 5 8 mph 1017.6mb 54f 58f
6:36pm 6 9 mph 1017.6mb 54f 58f
6:30pm 6 9 mph 1017.6mb 55f 58f
6:24pm 6 9 mph 1017.8mb 54f 59f
6:18pm 3 8 mph 1017.9mb 54f 59f
6:12pm 6 8 mph 1018.1mb 54f 59f
6:06pm 6 8 mph 1018.1mb 54f 59f
6:00pm 7 9 mph 1018mb 54f 59f
5:48pm 5 9 mph 1018mb 54f 59f
5:42pm 6 9 mph 1018.3mb 55f 59f
5:36pm 6 10 mph 1018.3mb 54f 59f
5:30pm 6 9 mph 1018.3mb 55f 59f
5:24pm 6 9 mph 1018.3mb 55f 59f
5:18pm 7 11 mph 1018.4mb 55f 59f
5:12pm 8 13 mph 1018.3mb 55f 59f
5:06pm 8 10 mph 1018.3mb 55f 59f
5:00pm 7 14 mph 1018.4mb 54f 59f
4:48pm 7 11 mph 1018.6mb 54f 59f
4:42pm 5 10 mph 1018.7mb 54f 59f
4:36pm 7 13 mph 1018.7mb 54f 58f
4:30pm 8 14 mph 1018.9mb 54f 59f
4:24pm 8 14 mph 1018.7mb 55f 59f
4:00pm 5 13 mph 1019mb 54f 59f
3:54pm 7 13 mph 1019.1mb 54f 58f
3:48pm 7 14 mph 1019.2mb 55f 58f
3:42pm 9 13 mph 1019.3mb 55f 59f
3:36pm 7 13 mph 1019.3mb 54f 59f
3:30pm 8 11 mph 1019.2mb 54f 59f
3:24pm 6 10 mph 1019.3mb 54f 58f
3:18pm 6 11 mph 1019.5mb 54f 58f
3:12pm 8 14 mph 1019.5mb 54f 57f
3:06pm 11 13 mph 1019.8mb 54f 57f
3:00pm 9 13 mph 1019.7mb 55f 58f
2:48pm 7 10 mph 1019.7mb 55f 60f
2:42pm 7 9 mph 1019.6mb 54f 60f
2:36pm 7 10 mph 1019.7mb 54f 60f
2:30pm 6 10 mph 1019.8mb 54f 59f
2:24pm 8 9 mph 1020mb 54f 58f
2:18pm 7 11 mph 1020.1mb 54f 58f
2:12pm 9 13 mph 1020.2mb 54f 57f
2:06pm 10 13 mph 1020.2mb 54f 58f
2:00pm 9 10 mph 1020.2mb 54f 58f
1:54pm 8 10 mph 1020.3mb 54f 58f
1:48pm 8 11 mph 1020.3mb 54f 58f
1:42pm 9 11 mph 1020.4mb 54f 58f
1:36pm 8 11 mph 1020.5mb 54f 58f
1:30pm 9 13 mph 1020.5mb 54f 59f
1:24pm 9 10 mph 1020.5mb 54f 60f
1:18pm 7 10 mph 1020.5mb 54f 60f
1:12pm 6 9 mph 1020.5mb 54f 60f
1:06pm 8 11 mph 1020.6mb 54f 60f
1:00pm 7 11 mph 1020.6mb 54f 61f
12:54pm 7 10 mph 1020.6mb 54f 61f
12:48pm 7 10 mph 1020.7mb 54f 61f
12:42pm 3 6 mph 1020.7mb 54f 62f
12:36pm 3 6 mph 1020.7mb 54f 61f
12:30pm 5 7 mph 1020.8mb 54f 60f
12:24pm 6 8 mph 1021mb 54f 60f
12:18pm 5 7 mph 1021mb 54f 60f
12:12pm 5 7 mph 1021.1mb 54f 59f
12:06pm 5 9 mph 1021.2mb 54f 59f
12:00pm 6 9 mph 1021.3mb 54f 58f
11:54am 6 10 mph 1021.4mb 54f 58f
11:48am 6 9 mph 1021.4mb 54f 57f
11:42am 7 10 mph 1021.4mb 53f 57f
11:36am 8 11 mph 1021.5mb 53f 57f
11:30am 7 10 mph 1021.3mb 53f 58f
11:24am 3 6 mph 1021.3mb 53f 58f
11:18am 3 6 mph 1021.3mb 53f 58f
11:12am 2 7 mph 1021.4mb 53f 58f
11:06am 3 8 mph 1021.5mb 53f 58f
11:00am 6 10 mph 1021.5mb 53f 57f
10:54am 3 8 mph 1021.6mb 53f 57f
10:48am 3 7 mph 1021.7mb 53f 56f
10:42am 2 7 mph 1021.8mb 53f 56f
10:36am 5 8 mph 1021.8mb 53f 55f
10:30am 5 8 mph 1021.8mb 53f 55f
10:24am 7 11 mph 1021.8mb 53f 54f
10:18am 9 10 mph 1021.8mb 53f 54f
10:12am 9 10 mph 1021.6mb 53f 55f
10:06am 9 10 mph 1021.5mb 53f 55f
10:00am 8 9 mph 1021.3mb 53f 55f
9:54am 5 8 mph 1021.4mb 53f 55f
9:48am 3 7 mph 1021.3mb 54f 55f
9:42am 2 3 mph 1021.3mb 53f 56f
9:36am  -  2 mph 1021.2mb 53f 57f
9:30am  -  1 mph 1021.1mb 53f 57f
9:24am 1 2 mph 1021.2mb 53f 56f
9:18am 1 2 mph 1021.3mb 53f 55f
9:12am 2 6 mph 1021.4mb 53f 55f
9:06am 2 3 mph 1021.6mb 53f 54f
9:00am 3 5 mph 1021.7mb 53f 54f
8:54am  -  2 mph 1021.8mb 53f 54f
8:48am  -  5 mph 1021.9mb 53f 54f
8:42am 1 6 mph 1021.9mb 53f 53f
8:36am 1 5 mph 1022mb 53f 53f
8:30am 2 6 mph 1022.1mb 53f 52f
8:24am 3 5 mph 1022.2mb 53f 52f
8:18am 2 5 mph 1022.3mb 53f 52f
8:12am 2 5 mph 1022.4mb 53f 52f
8:06am 2 3 mph 1022.5mb 53f 51f
8:00am 1 3 mph 1022.4mb 53f 51f
7:54am 2 6 mph 1022.5mb 53f 50f
7:48am 2 5 mph 1022.6mb 53f 50f
7:42am 2 5 mph 1022.6mb 53f 49f
7:36am 2 6 mph 1022.6mb 53f 49f
7:30am 3 5 mph 1022.6mb 53f 49f
7:24am 2 3 mph 1022.7mb 53f 49f
7:18am 1 3 mph 1022.7mb 53f 48f
7:12am  -  2 mph 1022.7mb 53f 47f
7:06am 2 5 mph 1022.6mb 53f 47f
7:00am 2 5 mph 1022.5mb 53f 48f
6:30am 3 7 mph 1022.3mb 53f 47f
6:24am 6 7 mph 1022.3mb 53f 47f
6:18am 5 7 mph 1022.5mb 53f 47f
6:12am 5 7 mph 1022.6mb 53f 47f
6:06am 5 6 mph 1022.6mb 53f 47f
6:00am 6 7 mph 1022.6mb 53f 48f
5:54am 5 7 mph 1022.7mb 53f 48f
5:48am 5 6 mph 1022.7mb 53f 48f
5:42am 6 7 mph 1022.8mb 53f 49f
5:36am 6 7 mph 1022.8mb 53f 48f
5:30am 5 6 mph 1023mb 53f 47f
5:24am 5 7 mph 1023mb 53f 48f
5:18am 5 8 mph 1023mb 53f 49f
5:12am 5 7 mph 1023.2mb 53f 49f
5:06am 5 7 mph 1023.3mb 53f 49f
5:00am 6 7 mph 1023.4mb 53f 49f
4:54am 3 6 mph 1023.4mb 53f 49f
4:48am 3 5 mph 1023.4mb 53f 49f
4:42am 3 5 mph 1023.3mb 53f 49f
4:36am 5 6 mph 1023.3mb 53f 49f
4:30am 5 7 mph 1023.4mb 53f 49f
4:24am 5 7 mph 1023.6mb 53f 49f
4:18am 5 7 mph 1023.7mb 53f 48f
4:12am 3 6 mph 1023.8mb 53f 48f
4:06am 3 6 mph 1023.9mb 53f 48f
4:00am 5 7 mph 1024mb 53f 48f
3:54am 3 7 mph 1024.1mb 53f 48f
3:48am 3 6 mph 1024.2mb 53f 48f
3:42am 3 7 mph 1024.3mb 53f 48f
3:36am 2 5 mph 1024.5mb 53f 48f
3:30am 2 8 mph 1024.6mb 53f 48f
3:24am 2 6 mph 1024.7mb 53f 48f
3:18am 2 5 mph 1024.8mb 53f 48f
3:12am 2 5 mph 1025mb 53f 48f
3:06am 2 5 mph 1025mb 53f 48f
3:00am 3 6 mph 1025.2mb 53f 48f
2:54am 3 6 mph 1025.2mb 53f 48f
2:48am 2 7 mph 1025.3mb 53f 48f
2:42am 3 5 mph 1025.3mb 53f 48f
2:36am 2 6 mph 1025.4mb 53f 48f
2:30am 2 6 mph 1025.4mb 53f 48f
2:24am 2 5 mph 1025.4mb 53f 48f
2:18am 5 7 mph 1025.6mb 53f 48f
2:12am 5 6 mph 1025.7mb 53f 49f
2:06am 5 6 mph 1025.7mb 53f 49f
2:00am 5 6 mph 1025.9mb 53f 50f
1:54am 2 3 mph 1025.9mb 53f 50f
1:48am 2 3 mph 1026mb 53f 50f
1:42am 1 5 mph 1026.1mb 53f 50f
1:36am 1 6 mph 1026.1mb 53f 50f
1:30am 2 5 mph 1026.2mb 53f 50f
1:24am 5 6 mph 1026.3mb 53f 51f
1:18am 1 3 mph 1026.2mb 53f 51f
1:12am 1 3 mph 1026.1mb 53f 51f
1:06am 2 5 mph 1026.2mb 53f 51f
1:00am 3 7 mph 1026.4mb 54f 51f
12:54am 2 3 mph 1026.4mb 54f 51f
12:48am 1 5 mph 1026.4mb 54f 52f
12:42am 3 7 mph 1026.4mb 54f 52f
12:36am 3 7 mph 1026.5mb 54f 52f
12:30am 3 7 mph 1026.6mb 54f 52f
12:24am 3 6 mph 1026.6mb 54f 52f
12:18am 2 6 mph 1026.7mb 54f 52f
12:12am 1 5 mph 1026.8mb 54f 52f
12:06am 3 6 mph 1026.9mb 54f 52f
12:00am 1 6 mph 1026.9mb 54f 52f
Thu 04/20 11:54pm 3 6 mph 1027.1mb 54f 52f
11:48pm 3 7 mph 1027.1mb 54f 52f
11:42pm 2 6 mph 1027.1mb 54f 52f
11:36pm 1 5 mph 1027mb 54f 52f
11:30pm 2 9 mph 1027.1mb 54f 52f
11:24pm 2 5 mph 1027.1mb 54f 52f
11:18pm 2 5 mph 1027.3mb 54f 52f
11:12pm  -  3 mph 1027.2mb 54f 52f
11:06pm 2 6 mph 1027.1mb 54f 52f
11:00pm 1 2 mph 1027.3mb 54f 52f
10:54pm 1 6 mph 1027.3mb 54f 52f
10:48pm 1 5 mph - - -
10:42pm 2 6 mph - - -
10:36pm 2 9 mph - - -
10:30pm 2 8 mph 1027.3mb 54f 52f
10:24pm 2 6 mph 1027.3mb 54f 52f
10:18pm 1 6 mph 1027.4mb 54f 52f
10:12pm 2 5 mph 1027.5mb 54f 53f
10:06pm 2 6 mph 1027.6mb 54f 53f
10:00pm 2 6 mph 1027.7mb 54f 53f
9:54pm 2 6 mph 1027.8mb 54f 53f
9:48pm 5 7 mph 1027.8mb 54f 53f
9:42pm 6 9 mph 1027.8mb 54f 53f
9:36pm 5 9 mph 1027.8mb 54f 53f
9:30pm 5 8 mph 1027.7mb 54f 53f
9:24pm 3 6 mph 1027.7mb 54f 53f
9:18pm 3 8 mph 1027.6mb 54f 53f
9:12pm 3 8 mph 1027.4mb 54f 53f
9:06pm 5 13 mph 1027.4mb 54f 53f
9:00pm 6 11 mph 1027.3mb 54f 53f
8:54pm 5 8 mph 1027.3mb 54f 53f
8:48pm 6 9 mph 1027.3mb 54f 53f
8:42pm 6 9 mph 1027.3mb 55f 53f
8:36pm 5 7 mph 1027.3mb 55f 53f
8:30pm 3 7 mph 1027.1mb 55f 53f
8:24pm 5 7 mph 1027mb 55f 53f
8:18pm 3 7 mph 1026.8mb 55f 53f
8:12pm 6 10 mph 1026.8mb 55f 53f
8:06pm 5 8 mph 1026.8mb 55f 53f
8:00pm 5 7 mph 1026.8mb 55f 53f
7:54pm 5 9 mph 1026.7mb 55f 53f
7:48pm 6 11 mph 1026.7mb 55f 54f
7:42pm 6 9 mph 1026.8mb 55f 54f
7:36pm 5 11 mph 1026.8mb 55f 54f
7:30pm 7 9 mph 1026.7mb 55f 54f
7:24pm 7 9 mph 1026.8mb 55f 54f
7:18pm 7 10 mph 1026.7mb 55f 54f
7:12pm 7 14 mph 1026.7mb 55f 55f
7:06pm 8 13 mph 1026.8mb 55f 55f
7:00pm 6 14 mph 1027mb 55f 55f
6:54pm 7 11 mph 1027mb 55f 55f
6:48pm 7 11 mph 1027mb 55f 55f
6:42pm 9 14 mph 1027.1mb 55f 55f
6:36pm 8 13 mph 1027.1mb 55f 55f
6:30pm 7 13 mph 1027mb 55f 55f
6:24pm 7 13 mph 1027.1mb 55f 55f
6:18pm 7 13 mph 1027.2mb 55f 55f
6:12pm 6 11 mph 1027.4mb 55f 56f
6:06pm 7 15 mph 1027.3mb 55f 56f
6:00pm 9 14 mph 1027.5mb 55f 55f